Time;durP1;ratioP1;P1;durP2;ratioP2;P2;SDS_P1;SDS_P2;PMS_P1;PMS_P2;Temp;Humidity;BMP_temperature;BMP_pressure;BME280_temperature;BME280_humidity;BME280_pressure;Samples;Min_cycle;Max_cycle;Signal;HPM_P1;HPM_P2
2022/09/08 00:00:15;;;;;;;4.93;2.20;;;13.20;99.90;;;;;;4963900;28;20073;-91
2022/09/08 00:02:40;;;;;;;3.08;1.88;;;13.30;99.90;;;;;;4994588;28;20102;-90
2022/09/08 00:05:08;;;;;;;4.60;2.00;;;13.20;99.90;;;;;;4991197;28;20135;-90
2022/09/08 00:07:35;;;;;;;4.80;2.20;;;13.20;99.90;;;;;;4979864;28;20027;-90
2022/09/08 00:10:04;;;;;;;12.05;3.00;;;13.20;99.90;;;;;;4977828;28;20026;-90
2022/09/08 00:12:30;;;;;;;5.13;2.60;;;13.20;99.90;;;;;;4976176;28;20027;-90
2022/09/08 00:14:58;;;;;;;5.63;2.20;;;13.10;99.90;;;;;;4976243;28;20022;-90
2022/09/08 00:17:24;;;;;;;3.22;1.60;;;13.20;99.90;;;;;;4975341;28;20038;-90
2022/09/08 00:19:50;;;;;;;3.15;1.80;;;13.20;99.90;;;;;;4958612;28;20039;-90
2022/09/08 00:22:16;;;;;;;6.93;1.85;;;13.10;99.90;;;;;;4958369;28;20105;-90
2022/09/08 00:24:42;;;;;;;2.95;1.77;;;13.10;99.90;;;;;;4975291;28;20629;-91
2022/09/08 00:27:08;;;;;;;3.28;1.73;;;13.10;99.90;;;;;;4958776;28;20027;-91
2022/09/08 00:29:34;;;;;;;3.78;1.98;;;13.10;99.90;;;;;;4958928;28;20630;-91
2022/09/08 00:32:00;;;;;;;7.72;2.10;;;13.10;99.90;;;;;;4973951;28;20042;-91
2022/09/08 00:34:25;;;;;;;5.55;1.90;;;13.10;99.90;;;;;;4974642;28;20152;-90
2022/09/08 00:36:56;;;;;;;4.57;2.05;;;13.10;99.90;;;;;;4974736;28;20030;-90
2022/09/08 00:39:23;;;;;;;3.63;2.00;;;13.10;99.90;;;;;;4974389;28;20030;-91
2022/09/08 00:41:50;;;;;;;4.57;1.83;;;13.10;99.90;;;;;;4974087;28;20035;-91
2022/09/08 00:44:36;;;;;;;5.70;1.90;;;13.00;99.90;;;;;;4974154;28;20030;-91
2022/09/08 00:47:04;;;;;;;4.50;1.70;;;13.00;99.90;;;;;;4974018;28;20030;-91
2022/09/08 00:49:31;;;;;;;4.07;2.03;;;13.00;99.90;;;;;;4973578;28;20114;-90
2022/09/08 00:51:58;;;;;;;4.22;2.10;;;13.00;99.90;;;;;;4974329;28;20042;-91
2022/09/08 00:54:25;;;;;;;8.45;2.50;;;13.00;99.90;;;;;;4974517;28;20027;-90
2022/09/08 00:56:54;;;;;;;4.85;1.95;;;13.00;99.90;;;;;;4974738;28;20030;-90
2022/09/08 00:59:22;;;;;;;10.82;2.22;;;13.00;99.90;;;;;;4973953;28;20141;-91
2022/09/08 01:01:48;;;;;;;5.95;2.58;;;13.00;99.90;;;;;;4974102;28;20428;-89
2022/09/08 01:04:14;;;;;;;3.45;1.80;;;13.00;99.90;;;;;;4974583;28;20050;-90
2022/09/08 01:12:58;;;;;;;6.47;2.85;;;12.90;99.90;;;;;;4901345;29;20068;-90
2022/09/08 01:15:27;;;;;;;10.32;3.13;;;12.90;99.90;;;;;;4899563;29;20128;-90
2022/09/08 01:17:54;;;;;;;5.93;2.75;;;12.90;99.90;;;;;;4897700;29;20513;-91
2022/09/08 01:20:27;;;;;;;6.95;2.40;;;12.90;99.90;;;;;;4881251;29;20075;-90
2022/09/08 01:23:04;;;;;;;6.35;2.58;;;12.90;99.90;;;;;;4896495;29;20076;-89
2022/09/08 01:25:53;;;;;;;8.15;2.75;;;12.90;99.90;;;;;;4881231;29;20482;-90
2022/09/08 01:28:46;;;;;;;6.18;2.45;;;12.90;99.90;;;;;;4862646;29;20055;-91
2022/09/08 01:31:13;;;;;;;4.50;2.17;;;12.90;99.90;;;;;;4878226;29;20515;-90
2022/09/08 01:33:39;;;;;;;6.15;2.53;;;12.90;99.90;;;;;;4879515;29;20033;-90
2022/09/08 01:36:13;;;;;;;5.30;2.30;;;13.00;99.90;;;;;;4877936;29;20045;-90
2022/09/08 01:38:38;;;;;;;9.85;2.40;;;13.00;99.90;;;;;;4862245;29;20025;-90
2022/09/08 01:41:05;;;;;;;10.77;2.92;;;13.00;99.90;;;;;;4877991;29;20081;-90
2022/09/08 01:43:30;;;;;;;13.52;2.55;;;13.00;99.90;;;;;;4881456;29;20033;-90
2022/09/08 01:45:56;;;;;;;4.30;2.17;;;13.00;99.90;;;;;;4882936;29;20161;-90
2022/09/08 01:48:23;;;;;;;5.55;2.30;;;13.00;99.90;;;;;;4919434;28;20508;-90
2022/09/08 01:50:49;;;;;;;8.82;2.60;;;13.00;99.90;;;;;;4973563;28;20468;-90
2022/09/08 01:53:15;;;;;;;13.40;3.22;;;13.00;99.90;;;;;;4973224;28;20066;-90
2022/09/08 01:55:40;;;;;;;6.30;3.08;;;13.00;99.90;;;;;;4972778;28;20097;-91
2022/09/08 01:58:06;;;;;;;11.70;4.25;;;12.90;99.90;;;;;;4972804;28;20043;-90
2022/09/08 02:00:32;;;;;;;7.35;3.00;;;12.90;99.90;;;;;;4957212;28;20042;-91
2022/09/08 02:02:58;;;;;;;10.25;4.05;;;12.90;99.90;;;;;;4973304;28;20093;-93
2022/09/08 02:05:23;;;;;;;5.53;2.95;;;12.90;99.90;;;;;;4973939;28;20155;-90
2022/09/08 02:07:49;;;;;;;7.15;3.00;;;12.90;99.90;;;;;;4973372;28;20083;-91
2022/09/08 02:10:15;;;;;;;11.88;3.55;;;12.80;99.90;;;;;;4962588;28;20027;-92
2022/09/08 02:12:41;;;;;;;10.55;4.05;;;12.80;99.90;;;;;;4967134;28;20022;-92
2022/09/08 02:15:07;;;;;;;8.98;3.13;;;12.80;99.90;;;;;;4974016;28;20050;-92
2022/09/08 02:17:33;;;;;;;5.72;3.20;;;12.80;99.90;;;;;;4989041;28;20031;-91
2022/09/08 02:19:59;;;;;;;7.55;2.72;;;12.80;99.90;;;;;;4957693;28;20027;-91
2022/09/08 02:22:25;;;;;;;5.32;2.85;;;12.80;99.90;;;;;;4973002;28;20038;-92
2022/09/08 02:24:51;;;;;;;8.27;2.88;;;12.90;99.90;;;;;;4973910;28;20035;-92
2022/09/08 02:27:17;;;;;;;9.35;3.72;;;12.90;99.90;;;;;;4957783;28;20023;-91
2022/09/08 02:29:42;;;;;;;10.10;3.42;;;12.90;99.90;;;;;;4975079;28;20050;-91
2022/09/08 02:32:08;;;;;;;9.05;2.58;;;12.90;99.90;;;;;;4973517;28;20065;-91
2022/09/08 02:34:34;;;;;;;7.03;2.65;;;12.90;99.90;;;;;;4957558;28;20034;-91
2022/09/08 02:37:00;;;;;;;11.13;3.35;;;13.00;99.90;;;;;;4972979;28;20023;-92
2022/09/08 02:39:26;;;;;;;10.15;3.20;;;13.00;99.90;;;;;;4957521;28;20034;-91
2022/09/08 02:41:53;;;;;;;7.72;3.20;;;13.00;99.90;;;;;;4974350;28;20035;-91
2022/09/08 02:44:19;;;;;;;8.05;3.10;;;12.90;99.90;;;;;;4962308;28;20026;-91
2022/09/08 02:46:44;;;;;;;9.65;3.00;;;13.00;99.90;;;;;;4978619;28;20640;-91
2022/09/08 02:49:11;;;;;;;7.65;2.78;;;12.90;99.90;;;;;;4982461;28;20034;-91
2022/09/08 02:51:37;;;;;;;9.75;3.50;;;12.90;99.90;;;;;;4997729;28;20039;-91
2022/09/08 02:54:03;;;;;;;10.13;3.33;;;12.90;99.90;;;;;;4997967;28;20023;-91
2022/09/08 02:56:29;;;;;;;9.15;3.33;;;12.90;99.90;;;;;;4985654;28;20023;-90
2022/09/08 02:58:55;;;;;;;9.10;3.08;;;12.90;99.90;;;;;;4981905;28;20066;-90
2022/09/08 03:01:21;;;;;;;8.07;3.00;;;12.90;99.90;;;;;;4984154;28;20033;-90
2022/09/08 03:03:47;;;;;;;8.75;3.05;;;12.80;99.90;;;;;;4980949;28;20038;-90
2022/09/08 03:06:14;;;;;;;6.63;3.03;;;12.80;99.90;;;;;;4980112;28;20022;-90
2022/09/08 03:08:40;;;;;;;12.20;3.42;;;12.80;99.90;;;;;;4980578;28;20026;-90
2022/09/08 03:11:06;;;;;;;5.38;3.17;;;12.80;99.90;;;;;;4980257;28;20053;-91
2022/09/08 03:13:31;;;;;;;9.82;3.13;;;12.80;99.90;;;;;;4979894;28;20503;-90
2022/09/08 03:15:58;;;;;;;10.50;3.33;;;12.80;99.90;;;;;;4980441;28;20034;-90
2022/09/08 03:18:24;;;;;;;6.03;3.28;;;12.90;99.90;;;;;;4981270;28;20038;-90
2022/09/08 03:21:05;;;;;;;6.20;3.17;;;12.80;99.90;;;;;;4997273;28;20052;-90
2022/09/08 03:23:32;;;;;;;6.18;2.90;;;12.90;99.90;;;;;;4980134;28;20489;-91
2022/09/08 03:26:09;;;;;;;4.93;2.47;;;12.90;99.90;;;;;;4979393;28;20034;-91
2022/09/08 03:28:37;;;;;;;7.35;3.05;;;12.90;99.90;;;;;;4980487;28;20030;-91
2022/09/08 03:31:07;;;;;;;11.57;3.00;;;13.00;99.90;;;;;;4980197;28;20026;-91
2022/09/08 03:33:33;;;;;;;8.47;2.93;;;13.00;99.90;;;;;;4983837;28;20033;-92
2022/09/08 03:36:01;;;;;;;6.95;2.65;;;13.00;99.90;;;;;;4972879;28;20023;-92
2022/09/08 03:38:27;;;;;;;11.15;3.35;;;13.00;99.90;;;;;;4959394;28;20023;-91
2022/09/08 03:40:53;;;;;;;12.98;2.97;;;13.00;99.90;;;;;;4959972;28;20030;-91
2022/09/08 03:43:19;;;;;;;8.07;3.55;;;13.00;99.90;;;;;;4959631;28;20035;-92
2022/09/08 03:45:46;;;;;;;7.93;3.28;;;13.00;99.90;;;;;;4959815;28;20362;-91
2022/09/08 03:48:13;;;;;;;5.72;3.30;;;13.00;99.90;;;;;;4959249;28;20121;-91
2022/09/08 03:50:39;;;;;;;8.65;2.97;;;13.00;99.90;;;;;;4959753;28;20027;-90
2022/09/08 03:53:05;;;;;;;10.68;3.35;;;12.90;99.90;;;;;;4959664;28;20038;-91
2022/09/08 03:55:31;;;;;;;8.75;3.20;;;12.90;99.90;;;;;;4959733;28;20113;-91
2022/09/08 03:57:59;;;;;;;6.13;2.50;;;13.00;99.90;;;;;;4960035;28;20082;-92
2022/09/08 04:00:24;;;;;;;11.00;2.35;;;13.00;99.90;;;;;;4959420;28;20582;-93
2022/09/08 04:02:50;;;;;;;8.30;2.85;;;13.00;99.90;;;;;;4959798;28;20034;-91
2022/09/08 04:05:17;;;;;;;7.25;2.90;;;13.00;99.90;;;;;;4960345;28;20023;-91
2022/09/08 04:07:43;;;;;;;7.70;3.22;;;13.00;99.90;;;;;;4960891;28;20031;-91
2022/09/08 04:10:10;;;;;;;14.25;3.55;;;13.00;99.90;;;;;;4961149;28;20550;-91
2022/09/08 04:12:36;;;;;;;8.10;2.85;;;13.00;99.90;;;;;;4962113;28;20042;-91
2022/09/08 04:15:02;;;;;;;8.25;3.10;;;13.00;99.90;;;;;;4970652;28;20035;-91
2022/09/08 04:17:28;;;;;;;5.75;2.75;;;13.00;99.90;;;;;;4982021;28;20019;-91
2022/09/08 04:19:53;;;;;;;7.05;3.33;;;12.90;99.90;;;;;;4974588;28;20038;-91
2022/09/08 04:22:21;;;;;;;6.88;3.10;;;13.00;99.90;;;;;;4964250;28;20062;-91
2022/09/08 04:24:47;;;;;;;7.20;2.60;;;12.90;99.90;;;;;;4959934;28;20054;-91
2022/09/08 04:27:13;;;;;;;10.48;3.25;;;13.00;99.90;;;;;;4959891;28;20026;-91
2022/09/08 04:29:39;;;;;;;13.93;3.55;;;13.00;99.90;;;;;;4960158;28;20069;-92
2022/09/08 04:32:07;;;;;;;13.43;4.38;;;13.00;99.90;;;;;;4961190;28;20039;-91
2022/09/08 04:34:33;;;;;;;11.52;3.90;;;13.00;99.90;;;;;;4961936;28;20051;-92
2022/09/08 04:36:59;;;;;;;10.73;4.20;;;13.10;99.90;;;;;;4974319;28;20026;-92
2022/09/08 04:39:25;;;;;;;12.07;4.70;;;13.00;99.90;;;;;;4997233;28;20019;-92
2022/09/08 04:41:51;;;;;;;8.60;3.72;;;13.10;99.90;;;;;;4969502;28;20038;-91
2022/09/08 04:44:17;;;;;;;13.98;4.43;;;13.10;99.90;;;;;;4967852;28;20030;-91
2022/09/08 04:47:02;;;;;;;10.38;3.50;;;13.10;99.90;;;;;;4978344;28;20384;-91
2022/09/08 04:49:27;;;;;;;7.30;2.90;;;13.10;99.90;;;;;;4957889;28;20568;-91
2022/09/08 04:51:53;;;;;;;12.02;3.78;;;13.10;99.90;;;;;;4958584;28;20050;-91
2022/09/08 04:54:20;;;;;;;11.38;3.35;;;13.20;99.90;;;;;;4958993;28;20027;-91
2022/09/08 04:56:46;;;;;;;9.68;3.63;;;13.10;99.90;;;;;;4959953;28;20029;-92
2022/09/08 04:59:12;;;;;;;10.60;3.80;;;13.10;99.90;;;;;;4959791;28;20050;-91
2022/09/08 05:01:38;;;;;;;6.25;2.97;;;13.10;99.90;;;;;;4959436;28;20027;-91
2022/09/08 05:04:04;;;;;;;13.55;4.28;;;13.10;99.90;;;;;;4959960;28;20104;-91
2022/09/08 05:06:31;;;;;;;12.98;3.75;;;13.10;99.90;;;;;;4960180;28;20043;-93
2022/09/08 05:08:58;;;;;;;6.20;3.50;;;13.10;99.90;;;;;;4969028;28;20034;-91
2022/09/08 05:11:26;;;;;;;9.63;3.75;;;13.10;99.90;;;;;;4962340;28;20027;-91
2022/09/08 05:13:52;;;;;;;12.52;3.97;;;13.10;99.90;;;;;;4958607;28;20027;-92
2022/09/08 05:16:24;;;;;;;8.95;4.18;;;13.10;99.90;;;;;;4958603;28;20049;-91
2022/09/08 05:18:54;;;;;;;11.27;2.95;;;13.10;99.90;;;;;;4959151;28;20034;-92
2022/09/08 05:21:20;;;;;;;10.75;3.47;;;13.20;99.90;;;;;;4958121;28;20031;-92
2022/09/08 05:23:49;;;;;;;18.40;4.88;;;13.20;99.90;;;;;;4958408;28;20046;-92
2022/09/08 05:26:16;;;;;;;10.43;3.25;;;13.10;99.90;;;;;;4958206;28;20410;-92
2022/09/08 05:28:43;;;;;;;8.02;3.30;;;13.20;99.90;;;;;;4958190;28;20178;-92
2022/09/08 05:31:12;;;;;;;8.02;3.25;;;13.20;99.90;;;;;;4958193;28;20027;-91
2022/09/08 05:33:37;;;;;;;8.30;3.67;;;13.20;99.90;;;;;;4959845;28;20026;-92
2022/09/08 05:36:13;;;;;;;10.75;3.97;;;13.20;99.90;;;;;;4962847;28;20230;-91
2022/09/08 05:38:39;;;;;;;9.30;3.45;;;13.20;99.90;;;;;;4959310;28;20023;-92
2022/09/08 05:41:05;;;;;;;11.20;4.43;;;13.20;99.90;;;;;;4962243;28;20034;-92
2022/09/08 05:43:31;;;;;;;8.70;4.03;;;13.20;99.90;;;;;;4968278;28;20035;-92
2022/09/08 05:45:57;;;;;;;10.10;4.68;;;13.20;99.90;;;;;;4963794;28;20119;-92
2022/09/08 05:48:23;;;;;;;15.45;5.82;;;13.20;99.90;;;;;;4961926;28;20027;-93
2022/09/08 05:50:49;;;;;;;11.73;5.15;;;13.20;99.90;;;;;;4961608;28;20553;-92
2022/09/08 05:53:15;;;;;;;14.05;5.03;;;13.20;99.90;;;;;;4960359;28;20510;-92
2022/09/08 05:55:41;;;;;;;13.43;4.75;;;13.30;99.90;;;;;;4960213;28;20023;-92
2022/09/08 05:58:10;;;;;;;16.38;5.43;;;13.20;99.90;;;;;;4959202;28;20170;-93
2022/09/08 06:00:37;;;;;;;12.60;4.15;;;13.20;99.90;;;;;;4960584;28;20102;-92
2022/09/08 06:03:03;;;;;;;19.80;4.82;;;13.20;99.90;;;;;;4961958;28;20039;-93
2022/09/08 06:05:29;;;;;;;14.50;4.85;;;13.20;99.90;;;;;;4961140;28;20023;-93
2022/09/08 06:07:55;;;;;;;13.75;5.32;;;13.20;99.90;;;;;;4960337;28;20037;-92
2022/09/08 06:10:21;;;;;;;17.10;4.57;;;13.20;99.90;;;;;;4959568;28;20129;-92
2022/09/08 06:12:47;;;;;;;13.45;4.68;;;13.20;99.90;;;;;;4959522;28;20118;-92
2022/09/08 06:15:12;;;;;;;15.13;5.50;;;13.30;99.90;;;;;;4959976;28;20042;-92
2022/09/08 06:17:38;;;;;;;20.05;5.47;;;13.30;99.90;;;;;;4963751;28;20432;-91
2022/09/08 06:20:05;;;;;;;28.48;5.60;;;13.30;99.90;;;;;;4977635;28;20034;-92
2022/09/08 06:22:33;;;;;;;17.73;5.15;;;13.40;99.90;;;;;;4979259;28;20077;-92
2022/09/08 06:24:59;;;;;;;17.55;5.05;;;13.40;99.90;;;;;;4976989;28;20083;-92
2022/09/08 06:27:31;;;;;;;22.08;6.40;;;13.50;99.90;;;;;;4962879;28;20054;-91
2022/09/08 06:30:04;;;;;;;24.02;5.88;;;13.50;99.90;;;;;;4961901;28;20047;-92
2022/09/08 06:32:40;;;;;;;10.02;4.38;;;13.60;99.90;;;;;;4962813;28;20035;-92
2022/09/08 06:35:25;;;;;;;12.52;3.90;;;13.50;99.90;;;;;;4962931;28;20034;-92
2022/09/08 06:38:04;;;;;;;17.88;3.90;;;13.50;99.90;;;;;;4961473;28;20037;-91
2022/09/08 06:40:41;;;;;;;13.52;4.75;;;13.40;99.90;;;;;;4962095;28;20023;-93
2022/09/08 06:43:11;;;;;;;12.93;4.28;;;13.40;99.90;;;;;;4962206;28;20046;-92
2022/09/08 06:45:42;;;;;;;11.50;4.72;;;13.40;99.90;;;;;;4975851;28;20023;-92
2022/09/08 06:48:29;;;;;;;10.18;4.75;;;13.50;99.90;;;;;;4980464;28;20480;-92
2022/09/08 06:51:01;;;;;;;13.30;4.72;;;13.50;99.90;;;;;;4980421;28;20049;-91
2022/09/08 06:53:34;;;;;;;17.08;5.50;;;13.50;99.90;;;;;;4980309;28;20464;-92
2022/09/08 06:56:19;;;;;;;15.63;6.22;;;13.50;99.90;;;;;;4972784;28;20125;-92
2022/09/08 06:58:46;;;;;;;17.55;6.88;;;13.60;99.90;;;;;;4969784;28;20066;-92
2022/09/08 07:02:00;;;;;;;18.42;6.85;;;13.60;99.90;;;;;;4972852;28;20172;-92
2022/09/08 07:05:01;;;;;;;18.75;6.97;;;13.70;99.90;;;;;;4929321;29;20036;-90
2022/09/08 07:07:27;;;;;;;14.05;6.65;;;13.70;99.90;;;;;;4929048;29;20032;-91
2022/09/08 07:10:30;;;;;;;18.30;7.50;;;13.70;99.90;;;;;;4934854;29;20047;-91
2022/09/08 07:13:02;;;;;;;17.77;7.30;;;13.70;99.90;;;;;;4918801;29;20058;-91
2022/09/08 07:15:54;;;;;;;20.88;7.38;;;13.80;99.90;;;;;;4929800;29;20035;-92
2022/09/08 07:18:30;;;;;;;17.30;7.15;;;13.80;99.90;;;;;;4950979;29;20039;-91
2022/09/08 07:21:42;;;;;;;18.23;7.45;;;13.90;99.90;;;;;;4928425;29;20126;-91
2022/09/08 07:24:14;;;;;;;22.05;7.57;;;14.00;99.90;;;;;;4928917;29;20036;-91
2022/09/08 07:26:45;;;;;;;21.10;7.47;;;14.00;99.90;;;;;;4930411;29;20042;-92
2022/09/08 07:29:19;;;;;;;20.58;7.15;;;14.10;99.90;;;;;;4929312;29;20024;-91
2022/09/08 07:31:50;;;;;;;19.75;7.95;;;14.10;99.90;;;;;;4934676;29;20023;-92
2022/09/08 07:34:23;;;;;;;21.50;8.90;;;14.20;99.90;;;;;;4933961;29;20043;-91
2022/09/08 07:37:13;;;;;;;30.95;9.15;;;14.20;99.90;;;;;;4934286;29;20043;-92
2022/09/08 07:39:55;;;;;;;18.67;7.43;;;14.30;99.90;;;;;;4942209;28;20489;-89
2022/09/08 07:42:21;;;;;;;19.73;8.10;;;14.40;99.90;;;;;;4959952;28;20049;-91
2022/09/08 07:44:53;;;;;;;18.10;7.57;;;14.50;99.90;;;;;;4979771;28;20030;-91
2022/09/08 07:47:30;;;;;;;15.10;7.43;;;14.50;99.90;;;;;;4964795;28;20030;-90
2022/09/08 07:50:18;;;;;;;20.20;7.22;;;14.60;99.90;;;;;;4961969;28;20094;-90
2022/09/08 07:53:08;;;;;;;12.43;5.90;;;14.60;99.90;;;;;;4959783;28;20035;-90
2022/09/08 07:55:41;;;;;;;20.15;6.93;;;14.70;99.90;;;;;;4968011;28;20106;-90
2022/09/08 07:58:30;;;;;;;19.38;6.30;;;14.80;99.90;;;;;;4966711;28;20168;-90
2022/09/08 08:01:10;;;;;;;15.30;5.10;;;14.90;99.90;;;;;;4968043;28;20040;-89
2022/09/08 08:03:45;;;;;;;16.77;5.93;;;15.00;99.90;;;;;;4979572;28;20054;-90
2022/09/08 08:06:51;;;;;;;13.57;5.22;;;15.10;99.90;;;;;;4987671;28;20034;-89
2022/09/08 08:09:23;;;;;;;16.35;5.13;;;15.10;99.90;;;;;;4978459;28;20034;-89
2022/09/08 08:12:06;;;;;;;15.65;5.28;;;15.20;99.90;;;;;;4963394;28;20023;-89
2022/09/08 08:14:47;;;;;;;19.85;5.32;;;15.40;99.90;;;;;;4966315;28;20033;-89
2022/09/08 08:17:13;;;;;;;14.95;4.72;;;15.40;99.90;;;;;;4976800;28;20388;-89
2022/09/08 08:20:13;;;;;;;12.25;3.70;;;15.40;99.90;;;;;;4977562;28;20037;-90
2022/09/08 08:22:52;;;;;;;17.50;3.80;;;15.50;99.90;;;;;;4978071;28;20046;-89
2022/09/08 08:25:29;;;;;;;18.48;4.85;;;15.60;99.90;;;;;;4978161;28;20036;-92
2022/09/08 08:28:14;;;;;;;16.73;5.30;;;15.60;99.90;;;;;;4978177;28;20544;-90
2022/09/08 08:31:13;;;;;;;15.40;3.58;;;15.70;99.90;;;;;;4975843;28;20026;-90
2022/09/08 08:34:07;;;;;;;15.82;3.78;;;15.70;99.90;;;;;;4980804;28;20026;-91
2022/09/08 08:36:38;;;;;;;13.55;4.05;;;15.70;99.90;;;;;;5001803;28;20072;-88
2022/09/08 08:39:17;;;;;;;11.95;3.40;;;15.70;99.90;;;;;;4988752;28;20030;-89
2022/09/08 08:41:46;;;;;;;11.70;3.10;;;15.80;99.90;;;;;;4986990;28;20381;-89
2022/09/08 08:44:27;;;;;;;11.98;3.10;;;15.90;99.90;;;;;;4976615;28;20038;-90
2022/09/08 08:46:55;;;;;;;;;;;16.00;99.90;;;;;;4960849;28;20051;-89
2022/09/08 08:49:54;;;;;;;10.60;2.80;;;16.20;99.90;;;;;;4960378;28;19906;-89
2022/09/08 08:52:41;;;;;;;8.32;2.30;;;16.30;99.90;;;;;;4955158;28;20031;-90
2022/09/08 08:55:08;;;;;;;9.80;1.85;;;16.50;99.90;;;;;;4959433;28;20101;-89
2022/09/08 08:57:51;;;;;;;8.93;2.13;;;16.50;99.90;;;;;;4961224;28;20046;-89
2022/09/08 09:00:36;;;;;;;9.82;2.72;;;16.60;99.90;;;;;;4974201;28;20038;-89
2022/09/08 09:03:22;;;;;;;9.95;2.20;;;16.70;99.90;;;;;;4976419;28;20113;-89
2022/09/08 09:06:46;;;;;;;9.57;2.17;;;16.70;99.90;;;;;;4977566;28;20117;-88
2022/09/08 09:09:32;;;;;;;7.22;1.50;;;16.80;99.90;;;;;;4918661;29;20122;-89
2022/09/08 09:12:37;;;;;;;8.20;1.80;;;16.90;99.90;;;;;;4919052;29;20031;-88
2022/09/08 09:15:37;;;;;;;12.02;2.22;;;16.90;99.90;;;;;;4919624;29;20040;-89
2022/09/08 09:18:28;;;;;;;13.60;2.10;;;16.80;99.90;;;;;;4880602;29;20121;-90
2022/09/08 09:20:59;;;;;;;6.05;1.45;;;16.80;99.90;;;;;;4863259;29;20145;-89
2022/09/08 09:23:37;;;;;;;7.55;1.55;;;16.90;99.90;;;;;;4862571;29;20132;-90
2022/09/08 09:26:23;;;;;;;8.48;2.40;;;16.90;99.90;;;;;;4865143;29;20167;-89
2022/09/08 09:28:54;;;;;;;9.48;1.73;;;16.90;99.90;;;;;;4862691;29;20316;-89
2022/09/08 09:31:32;;;;;;;8.65;1.70;;;16.90;99.90;;;;;;4862554;29;20033;-88
2022/09/08 09:34:35;;;;;;;8.13;2.00;;;16.80;99.90;;;;;;4862482;29;20069;-89
2022/09/08 09:37:26;;;;;;;11.40;2.45;;;16.80;99.90;;;;;;4860538;29;20108;-89
2022/09/08 09:40:07;;;;;;;11.70;1.88;;;16.80;99.90;;;;;;4893639;29;20052;-89
2022/09/08 09:43:06;;;;;;;7.30;2.15;;;17.00;99.90;;;;;;4899220;29;20044;-89
2022/09/08 09:45:49;;;;;;;9.93;1.88;;;17.10;99.90;;;;;;4897940;29;20032;-89
2022/09/08 09:48:35;;;;;;;11.05;3.47;;;17.30;99.90;;;;;;4899787;29;20036;-89
2022/09/08 09:51:21;;;;;;;9.52;2.00;;;17.30;99.90;;;;;;4893645;29;20039;-88
2022/09/08 09:54:06;;;;;;;9.82;2.40;;;17.40;99.90;;;;;;4904681;29;20119;-89
2022/09/08 09:57:16;;;;;;;9.95;2.63;;;17.50;99.90;;;;;;4964188;28;20027;-87
2022/09/08 10:00:14;;;;;;;9.50;2.07;;;17.60;99.90;;;;;;4937865;29;20058;-90
2022/09/08 10:03:02;;;;;;;10.18;2.80;;;17.80;99.90;;;;;;4936854;29;20299;-89
2022/09/08 10:06:07;;;;;;;9.40;2.08;;;17.90;99.90;;;;;;4937388;29;20110;-90
2022/09/08 10:09:02;;;;;;;13.07;2.00;;;17.90;99.90;;;;;;4937802;29;20043;-88
2022/09/08 10:11:55;;;;;;;9.45;2.08;;;17.90;99.90;;;;;;4937624;29;20027;-87
2022/09/08 10:14:51;;;;;;;7.47;2.13;;;18.00;99.90;;;;;;4921343;29;20031;-88
2022/09/08 10:17:54;;;;;;;7.70;2.20;;;18.10;99.90;;;;;;4917811;29;20039;-88
2022/09/08 10:20:35;;;;;;;11.43;2.30;;;18.30;99.90;;;;;;4910044;29;20518;-89
2022/09/08 10:23:28;;;;;;;9.77;2.17;;;18.40;99.90;;;;;;4915027;29;20116;-88
2022/09/08 10:26:44;;;;;;;10.68;2.08;;;18.40;99.90;;;;;;4918048;29;20056;-87
2022/09/08 10:29:35;;;;;;;12.38;2.03;;;18.50;99.90;;;;;;4886470;29;20171;-89
2022/09/08 10:32:07;;;;;;;28.33;15.63;;;18.60;99.90;;;;;;4979840;28;20022;-90
2022/09/08 10:34:54;;;;;;;12.63;2.20;;;18.70;99.90;;;;;;4965760;28;20031;-89
2022/09/08 10:37:57;;;;;;;13.05;2.47;;;18.80;99.90;;;;;;4964710;28;20022;-89
2022/09/08 10:40:52;;;;;;;8.95;2.40;;;18.80;99.90;;;;;;4960694;28;20041;-89
2022/09/08 10:43:21;;;;;;;10.23;1.80;;;18.70;99.90;;;;;;4959278;28;20042;-87
2022/09/08 10:46:11;;;;;;;10.75;2.00;;;18.70;99.90;;;;;;4969636;28;20042;-88
2022/09/08 10:48:55;;;;;;;11.93;2.17;;;18.80;99.90;;;;;;4975173;28;20543;-90
2022/09/08 10:51:38;;;;;;;9.18;2.25;;;19.00;99.90;;;;;;4960851;28;20489;-89
2022/09/08 10:54:22;;;;;;;8.35;1.85;;;19.10;99.90;;;;;;4960649;28;20468;-89
2022/09/08 10:56:48;;;;;;;9.43;1.77;;;19.20;99.90;;;;;;4963999;28;20025;-89
2022/09/08 10:59:34;;;;;;;11.90;2.20;;;19.30;99.90;;;;;;4970808;28;20041;-89
2022/09/08 11:02:13;;;;;;;11.95;2.83;;;19.70;99.90;;;;;;4975071;28;20065;-90
2022/09/08 11:04:57;;;;;;;12.48;1.88;;;20.20;99.90;;;;;;4978481;28;20027;-90
2022/09/08 11:07:29;;;;;;;6.70;1.75;;;20.60;99.90;;;;;;4996504;28;20037;-89
2022/09/08 11:10:26;;;;;;;9.45;2.10;;;21.10;99.90;;;;;;4979038;28;20343;-89
2022/09/08 11:13:20;;;;;;;4.50;1.40;;;21.50;99.90;;;;;;4996486;28;20018;-87
2022/09/08 11:15:54;;;;;;;7.85;1.90;;;21.70;99.90;;;;;;4966888;28;20488;-90
2022/09/08 11:18:33;;;;;;;10.43;1.83;;;21.60;99.50;;;;;;4959490;28;20022;-89
2022/09/08 11:21:37;;;;;;;6.82;1.80;;;21.60;98.50;;;;;;4959290;28;20030;-88
2022/09/08 11:24:33;;;;;;;8.45;1.60;;;21.60;98.00;;;;;;4963201;28;20046;-89
2022/09/08 11:27:05;;;;;;;12.30;1.67;;;21.60;97.60;;;;;;4979145;28;20439;-89
2022/09/08 11:29:35;;;;;;;9.88;1.88;;;21.40;97.70;;;;;;4987166;28;20042;-88
2022/09/08 11:32:32;;;;;;;7.25;1.75;;;21.30;97.20;;;;;;4997128;28;20053;-89
2022/09/08 11:35:16;;;;;;;8.15;1.92;;;21.10;96.90;;;;;;4994490;28;20113;-88
2022/09/08 11:38:19;;;;;;;8.45;1.80;;;20.80;97.10;;;;;;4979292;28;20030;-87
2022/09/08 11:41:01;;;;;;;6.85;2.08;;;20.60;97.60;;;;;;4988710;28;20038;-89
2022/09/08 11:43:54;;;;;;;10.88;1.88;;;20.60;98.00;;;;;;4969781;28;20066;-89
2022/09/08 11:46:33;;;;;;;12.18;2.03;;;20.50;97.80;;;;;;4972833;28;20114;-87
2022/09/08 11:49:36;;;;;;;10.18;2.00;;;20.50;97.60;;;;;;4962326;28;20027;-88
2022/09/08 11:52:27;;;;;;;9.20;2.20;;;20.50;97.50;;;;;;4960469;28;20023;-90
2022/09/08 11:55:20;;;;;;;10.65;2.00;;;20.60;97.40;;;;;;4960183;28;20029;-89
2022/09/08 11:58:08;;;;;;;7.80;2.55;;;20.80;97.30;;;;;;4968971;28;20083;-88
2022/09/08 12:00:42;;;;;;;9.25;2.13;;;21.00;96.50;;;;;;4966363;28;20031;-88
2022/09/08 12:03:20;;;;;;;9.10;1.88;;;21.20;96.30;;;;;;4969897;28;20039;-86
2022/09/08 12:06:20;;;;;;;8.27;1.60;;;21.50;95.50;;;;;;4974956;28;20546;-89
2022/09/08 12:09:24;;;;;;;8.50;2.03;;;21.80;95.10;;;;;;4959321;28;20031;-89
2022/09/08 12:12:08;;;;;;;7.25;1.80;;;22.00;94.40;;;;;;4975235;28;20834;-90
2022/09/08 12:15:22;;;;;;;7.78;1.88;;;22.20;93.40;;;;;;4960678;28;20108;-89
2022/09/08 12:18:00;;;;;;;6.88;2.00;;;22.30;92.20;;;;;;4974656;28;20109;-89
2022/09/08 12:20:59;;;;;;;5.47;1.70;;;22.10;91.40;;;;;;4975031;28;20073;-89
2022/09/08 12:24:04;;;;;;;6.60;1.73;;;21.90;91.30;;;;;;4974886;28;20057;-89
2022/09/08 12:26:42;;;;;;;7.20;2.00;;;22.00;91.30;;;;;;4974745;28;20027;-90
2022/09/08 12:29:57;;;;;;;9.48;2.30;;;22.10;90.90;;;;;;4975213;28;20045;-90
2022/09/08 12:32:41;;;;;;;9.30;2.72;;;22.20;90.40;;;;;;4901134;29;20074;-88
2022/09/08 12:35:17;;;;;;;9.00;2.13;;;22.50;90.10;;;;;;4900104;29;20043;-89
2022/09/08 12:37:57;;;;;;;9.73;2.67;;;22.80;88.40;;;;;;4901701;29;20055;-89
2022/09/08 12:40:33;;;;;;;9.73;2.08;;;23.10;86.90;;;;;;4902538;29;20028;-90
2022/09/08 12:43:20;;;;;;;9.93;2.20;;;23.40;85.50;;;;;;4902437;29;20077;-90
2022/09/08 12:46:19;;;;;;;4.25;2.25;;;23.40;83.60;;;;;;4888607;29;20096;-90
2022/09/08 12:49:18;;;;;;;9.30;2.28;;;23.40;81.80;;;;;;4894518;29;20044;-90
2022/09/08 12:51:44;;;;;;;8.45;2.58;;;23.50;80.30;;;;;;4900225;29;20028;-89
2022/09/08 12:54:47;;;;;;;10.63;2.47;;;23.60;79.60;;;;;;4900052;29;20024;-90
2022/09/08 12:57:36;;;;;;;8.27;1.80;;;24.00;79.30;;;;;;4899875;29;20051;-90
2022/09/08 13:00:11;;;;;;;5.05;1.80;;;24.30;78.50;;;;;;4900159;29;20072;-87
2022/09/08 13:02:49;;;;;;;4.38;1.75;;;24.20;77.10;;;;;;4899861;29;20139;-88
2022/09/08 13:05:41;;;;;;;5.57;1.90;;;24.10;76.20;;;;;;4900114;29;20131;-89
2022/09/08 13:08:44;;;;;;;7.13;1.95;;;24.10;76.20;;;;;;4927901;29;20491;-89
2022/09/08 13:11:48;;;;;;;4.78;1.80;;;24.20;76.10;;;;;;4938771;29;20031;-89
2022/09/08 13:14:14;;;;;;;11.23;1.98;;;24.40;75.10;;;;;;4896401;29;20052;-89
2022/09/08 13:17:04;;;;;;;6.03;1.85;;;24.60;74.80;;;;;;4882740;29;20545;-89
2022/09/08 13:19:34;;;;;;;7.00;1.70;;;25.00;74.70;;;;;;4885286;29;20047;-90
2022/09/08 13:22:12;;;;;;;7.03;1.92;;;25.20;74.20;;;;;;4888114;29;20037;-87
2022/09/08 13:25:15;;;;;;;7.65;1.77;;;25.30;74.30;;;;;;4891543;29;20071;-87
2022/09/08 13:27:54;;;;;;;5.43;2.03;;;25.30;73.60;;;;;;4902070;29;20055;-89
2022/09/08 13:30:36;;;;;;;7.75;1.95;;;25.00;73.30;;;;;;4921928;29;20051;-89
2022/09/08 13:33:21;;;;;;;5.30;1.90;;;24.60;73.60;;;;;;4913278;29;20024;-89
2022/09/08 13:36:03;;;;;;;5.28;2.05;;;24.20;74.40;;;;;;4905188;29;20040;-88